sensor_id;sensor_type;location;lat;lon;timestamp;P1;durP1;ratioP1;P2;durP2;ratioP2
62554;SDS011;48610;52.144;8.624;2023-05-16T00:02:49;13.85;;;8.48;;
62554;SDS011;48610;52.144;8.624;2023-05-16T00:05:50;15.02;;;7.75;;
62554;SDS011;48610;52.144;8.624;2023-05-16T00:08:50;16.38;;;9.48;;
62554;SDS011;48610;52.144;8.624;2023-05-16T00:11:51;17.73;;;8.88;;
62554;SDS011;48610;52.144;8.624;2023-05-16T00:14:52;13.82;;;8.52;;
62554;SDS011;48610;52.144;8.624;2023-05-16T00:17:53;15.13;;;8.82;;
62554;SDS011;48610;52.144;8.624;2023-05-16T00:20:57;19.33;;;9.15;;
62554;SDS011;48610;52.144;8.624;2023-05-16T00:23:58;18.50;;;8.82;;
62554;SDS011;48610;52.144;8.624;2023-05-16T00:26:59;15.55;;;9.30;;
62554;SDS011;48610;52.144;8.624;2023-05-16T00:30:00;15.00;;;8.65;;
62554;SDS011;48610;52.144;8.624;2023-05-16T00:33:01;15.68;;;7.85;;
62554;SDS011;48610;52.144;8.624;2023-05-16T00:36:02;18.65;;;8.00;;
62554;SDS011;48610;52.144;8.624;2023-05-16T00:39:02;13.70;;;7.15;;
62554;SDS011;48610;52.144;8.624;2023-05-16T00:42:03;15.48;;;7.55;;
62554;SDS011;48610;52.144;8.624;2023-05-16T00:45:04;13.20;;;6.88;;
62554;SDS011;48610;52.144;8.624;2023-05-16T00:48:05;18.98;;;6.10;;
62554;SDS011;48610;52.144;8.624;2023-05-16T00:51:08;16.10;;;6.35;;
62554;SDS011;48610;52.144;8.624;2023-05-16T00:54:08;12.13;;;6.38;;
62554;SDS011;48610;52.144;8.624;2023-05-16T00:57:10;11.43;;;6.30;;
62554;SDS011;48610;52.144;8.624;2023-05-16T01:00:11;14.30;;;5.68;;
62554;SDS011;48610;52.144;8.624;2023-05-16T01:03:14;11.80;;;6.18;;
62554;SDS011;48610;52.144;8.624;2023-05-16T01:06:14;9.80;;;5.97;;
62554;SDS011;48610;52.144;8.624;2023-05-16T01:09:15;10.45;;;6.03;;
62554;SDS011;48610;52.144;8.624;2023-05-16T01:12:23;11.05;;;5.57;;
62554;SDS011;48610;52.144;8.624;2023-05-16T01:15:43;12.70;;;5.80;;
62554;SDS011;48610;52.144;8.624;2023-05-16T01:18:51;8.48;;;5.63;;
62554;SDS011;48610;52.144;8.624;2023-05-16T01:25:45;9.68;;;5.22;;
62554;SDS011;48610;52.144;8.624;2023-05-16T01:28:58;8.15;;;5.30;;
62554;SDS011;48610;52.144;8.624;2023-05-16T01:31:59;12.75;;;5.07;;
62554;SDS011;48610;52.144;8.624;2023-05-16T01:35:00;10.88;;;4.90;;
62554;SDS011;48610;52.144;8.624;2023-05-16T01:38:04;7.10;;;4.75;;
62554;SDS011;48610;52.144;8.624;2023-05-16T01:41:22;11.10;;;4.38;;
62554;SDS011;48610;52.144;8.624;2023-05-16T01:44:34;11.00;;;3.90;;
62554;SDS011;48610;52.144;8.624;2023-05-16T01:47:40;8.63;;;4.00;;
62554;SDS011;48610;52.144;8.624;2023-05-16T01:50:51;8.65;;;3.75;;
62554;SDS011;48610;52.144;8.624;2023-05-16T01:53:55;8.85;;;3.50;;
62554;SDS011;48610;52.144;8.624;2023-05-16T01:57:00;14.27;;;4.05;;
62554;SDS011;48610;52.144;8.624;2023-05-16T02:00:03;10.70;;;4.07;;
62554;SDS011;48610;52.144;8.624;2023-05-16T02:03:05;12.52;;;4.32;;
62554;SDS011;48610;52.144;8.624;2023-05-16T02:06:05;17.27;;;5.00;;
62554;SDS011;48610;52.144;8.624;2023-05-16T02:09:06;5.93;;;3.05;;
62554;SDS011;48610;52.144;8.624;2023-05-16T02:12:07;8.98;;;3.58;;
62554;SDS011;48610;52.144;8.624;2023-05-16T02:15:08;6.65;;;3.35;;
62554;SDS011;48610;52.144;8.624;2023-05-16T02:18:09;10.90;;;3.83;;
62554;SDS011;48610;52.144;8.624;2023-05-16T02:21:10;11.27;;;3.63;;
62554;SDS011;48610;52.144;8.624;2023-05-16T02:24:10;7.53;;;4.10;;
62554;SDS011;48610;52.144;8.624;2023-05-16T02:27:11;9.57;;;3.95;;
62554;SDS011;48610;52.144;8.624;2023-05-16T02:30:11;14.85;;;3.90;;
62554;SDS011;48610;52.144;8.624;2023-05-16T02:33:12;12.57;;;3.67;;
62554;SDS011;48610;52.144;8.624;2023-05-16T02:36:13;13.90;;;3.75;;
62554;SDS011;48610;52.144;8.624;2023-05-16T02:39:13;10.20;;;3.35;;
62554;SDS011;48610;52.144;8.624;2023-05-16T02:42:14;11.18;;;3.90;;
62554;SDS011;48610;52.144;8.624;2023-05-16T02:45:14;12.98;;;3.72;;
62554;SDS011;48610;52.144;8.624;2023-05-16T02:48:15;9.38;;;3.85;;
62554;SDS011;48610;52.144;8.624;2023-05-16T02:51:16;13.70;;;3.95;;
62554;SDS011;48610;52.144;8.624;2023-05-16T02:54:35;9.07;;;3.35;;
62554;SDS011;48610;52.144;8.624;2023-05-16T02:57:36;9.80;;;3.42;;
62554;SDS011;48610;52.144;8.624;2023-05-16T03:00:36;15.82;;;4.28;;
62554;SDS011;48610;52.144;8.624;2023-05-16T03:03:37;17.80;;;3.83;;
62554;SDS011;48610;52.144;8.624;2023-05-16T03:06:37;23.05;;;4.60;;
62554;SDS011;48610;52.144;8.624;2023-05-16T03:09:38;8.68;;;4.10;;
62554;SDS011;48610;52.144;8.624;2023-05-16T03:12:38;10.30;;;3.90;;
62554;SDS011;48610;52.144;8.624;2023-05-16T03:15:39;15.07;;;3.55;;
62554;SDS011;48610;52.144;8.624;2023-05-16T03:18:39;13.23;;;3.80;;
62554;SDS011;48610;52.144;8.624;2023-05-16T03:21:40;8.20;;;3.33;;
62554;SDS011;48610;52.144;8.624;2023-05-16T03:24:41;13.63;;;3.63;;
62554;SDS011;48610;52.144;8.624;2023-05-16T03:27:41;11.30;;;3.40;;
62554;SDS011;48610;52.144;8.624;2023-05-16T03:30:42;20.50;;;3.78;;
62554;SDS011;48610;52.144;8.624;2023-05-16T03:33:42;16.08;;;3.40;;
62554;SDS011;48610;52.144;8.624;2023-05-16T03:36:43;18.70;;;4.60;;
62554;SDS011;48610;52.144;8.624;2023-05-16T03:39:44;14.07;;;3.45;;
62554;SDS011;48610;52.144;8.624;2023-05-16T03:42:44;8.57;;;3.33;;
62554;SDS011;48610;52.144;8.624;2023-05-16T03:45:45;17.08;;;3.92;;
62554;SDS011;48610;52.144;8.624;2023-05-16T03:48:45;10.00;;;3.40;;
62554;SDS011;48610;52.144;8.624;2023-05-16T03:51:46;15.68;;;3.40;;
62554;SDS011;48610;52.144;8.624;2023-05-16T03:54:46;20.63;;;3.72;;
62554;SDS011;48610;52.144;8.624;2023-05-16T03:57:47;17.25;;;3.75;;
62554;SDS011;48610;52.144;8.624;2023-05-16T04:00:49;10.85;;;3.80;;
62554;SDS011;48610;52.144;8.624;2023-05-16T04:03:49;13.88;;;3.38;;
62554;SDS011;48610;52.144;8.624;2023-05-16T04:06:50;18.90;;;4.40;;
62554;SDS011;48610;52.144;8.624;2023-05-16T04:09:50;14.60;;;3.17;;
62554;SDS011;48610;52.144;8.624;2023-05-16T04:12:53;23.67;;;3.63;;
62554;SDS011;48610;52.144;8.624;2023-05-16T04:15:54;12.65;;;3.47;;
62554;SDS011;48610;52.144;8.624;2023-05-16T04:18:55;10.70;;;2.90;;
62554;SDS011;48610;52.144;8.624;2023-05-16T04:21:56;22.60;;;4.45;;
62554;SDS011;48610;52.144;8.624;2023-05-16T04:24:56;31.58;;;4.65;;
62554;SDS011;48610;52.144;8.624;2023-05-16T04:27:57;18.08;;;3.70;;
62554;SDS011;48610;52.144;8.624;2023-05-16T04:30:57;20.70;;;4.07;;
62554;SDS011;48610;52.144;8.624;2023-05-16T04:33:58;12.98;;;4.05;;
62554;SDS011;48610;52.144;8.624;2023-05-16T04:36:59;21.67;;;3.97;;
62554;SDS011;48610;52.144;8.624;2023-05-16T04:39:59;23.90;;;3.08;;
62554;SDS011;48610;52.144;8.624;2023-05-16T04:43:00;24.15;;;3.80;;
62554;SDS011;48610;52.144;8.624;2023-05-16T04:46:00;18.65;;;3.45;;
62554;SDS011;48610;52.144;8.624;2023-05-16T04:49:01;13.85;;;3.38;;
62554;SDS011;48610;52.144;8.624;2023-05-16T04:52:02;35.42;;;4.22;;
62554;SDS011;48610;52.144;8.624;2023-05-16T04:55:02;29.05;;;3.90;;
62554;SDS011;48610;52.144;8.624;2023-05-16T04:58:03;13.77;;;2.90;;
62554;SDS011;48610;52.144;8.624;2023-05-16T05:01:04;12.23;;;3.15;;
62554;SDS011;48610;52.144;8.624;2023-05-16T05:04:04;18.52;;;3.15;;
62554;SDS011;48610;52.144;8.624;2023-05-16T05:07:05;21.92;;;2.45;;
62554;SDS011;48610;52.144;8.624;2023-05-16T05:10:07;19.85;;;3.35;;
62554;SDS011;48610;52.144;8.624;2023-05-16T05:13:09;19.35;;;3.40;;
62554;SDS011;48610;52.144;8.624;2023-05-16T05:16:10;22.92;;;3.22;;
62554;SDS011;48610;52.144;8.624;2023-05-16T05:19:10;16.42;;;3.35;;
62554;SDS011;48610;52.144;8.624;2023-05-16T05:22:11;17.13;;;3.53;;
62554;SDS011;48610;52.144;8.624;2023-05-16T05:25:13;11.60;;;2.83;;
62554;SDS011;48610;52.144;8.624;2023-05-16T05:28:13;17.05;;;3.88;;
62554;SDS011;48610;52.144;8.624;2023-05-16T05:31:14;25.73;;;4.10;;
62554;SDS011;48610;52.144;8.624;2023-05-16T05:34:15;25.98;;;3.90;;
62554;SDS011;48610;52.144;8.624;2023-05-16T05:37:16;16.10;;;3.00;;
62554;SDS011;48610;52.144;8.624;2023-05-16T05:40:16;18.70;;;3.40;;
62554;SDS011;48610;52.144;8.624;2023-05-16T05:43:17;15.20;;;3.40;;
62554;SDS011;48610;52.144;8.624;2023-05-16T05:46:17;33.17;;;3.40;;
62554;SDS011;48610;52.144;8.624;2023-05-16T05:49:18;22.23;;;3.85;;
62554;SDS011;48610;52.144;8.624;2023-05-16T05:52:19;22.88;;;3.83;;
62554;SDS011;48610;52.144;8.624;2023-05-16T05:55:20;17.52;;;3.70;;
62554;SDS011;48610;52.144;8.624;2023-05-16T05:58:20;16.63;;;3.15;;
62554;SDS011;48610;52.144;8.624;2023-05-16T06:01:21;16.55;;;3.42;;
62554;SDS011;48610;52.144;8.624;2023-05-16T06:04:22;14.98;;;2.97;;
62554;SDS011;48610;52.144;8.624;2023-05-16T06:07:22;13.57;;;2.78;;
62554;SDS011;48610;52.144;8.624;2023-05-16T06:10:24;12.10;;;3.20;;
62554;SDS011;48610;52.144;8.624;2023-05-16T06:13:25;21.52;;;3.03;;
62554;SDS011;48610;52.144;8.624;2023-05-16T06:16:25;13.43;;;3.40;;
62554;SDS011;48610;52.144;8.624;2023-05-16T06:19:26;23.17;;;4.03;;
62554;SDS011;48610;52.144;8.624;2023-05-16T06:22:27;10.98;;;2.80;;
62554;SDS011;48610;52.144;8.624;2023-05-16T06:25:27;23.60;;;3.60;;
62554;SDS011;48610;52.144;8.624;2023-05-16T06:28:29;15.05;;;3.15;;
62554;SDS011;48610;52.144;8.624;2023-05-16T06:31:30;18.42;;;3.50;;
62554;SDS011;48610;52.144;8.624;2023-05-16T06:34:31;10.02;;;2.83;;
62554;SDS011;48610;52.144;8.624;2023-05-16T06:37:31;16.20;;;3.28;;
62554;SDS011;48610;52.144;8.624;2023-05-16T06:40:32;12.48;;;2.90;;
62554;SDS011;48610;52.144;8.624;2023-05-16T06:43:32;7.57;;;2.22;;
62554;SDS011;48610;52.144;8.624;2023-05-16T06:46:33;8.93;;;3.15;;
62554;SDS011;48610;52.144;8.624;2023-05-16T06:49:33;17.52;;;3.00;;
62554;SDS011;48610;52.144;8.624;2023-05-16T06:52:34;13.18;;;2.90;;
62554;SDS011;48610;52.144;8.624;2023-05-16T06:55:35;9.85;;;2.67;;
62554;SDS011;48610;52.144;8.624;2023-05-16T06:58:36;14.10;;;2.95;;
62554;SDS011;48610;52.144;8.624;2023-05-16T07:01:36;12.15;;;2.70;;
62554;SDS011;48610;52.144;8.624;2023-05-16T07:04:37;15.63;;;3.33;;
62554;SDS011;48610;52.144;8.624;2023-05-16T07:07:37;16.60;;;2.83;;
62554;SDS011;48610;52.144;8.624;2023-05-16T07:10:38;14.82;;;2.60;;
62554;SDS011;48610;52.144;8.624;2023-05-16T07:13:38;11.05;;;3.28;;
62554;SDS011;48610;52.144;8.624;2023-05-16T07:16:39;12.50;;;3.33;;
62554;SDS011;48610;52.144;8.624;2023-05-16T07:19:40;7.07;;;2.33;;
62554;SDS011;48610;52.144;8.624;2023-05-16T07:22:40;13.50;;;2.72;;
62554;SDS011;48610;52.144;8.624;2023-05-16T07:25:41;10.70;;;2.95;;
62554;SDS011;48610;52.144;8.624;2023-05-16T07:28:41;11.98;;;3.63;;
62554;SDS011;48610;52.144;8.624;2023-05-16T07:31:42;6.68;;;2.30;;
62554;SDS011;48610;52.144;8.624;2023-05-16T07:34:42;11.15;;;2.38;;
62554;SDS011;48610;52.144;8.624;2023-05-16T07:37:43;8.15;;;2.40;;
62554;SDS011;48610;52.144;8.624;2023-05-16T07:40:44;21.90;;;3.33;;
62554;SDS011;48610;52.144;8.624;2023-05-16T07:43:44;11.00;;;2.53;;
62554;SDS011;48610;52.144;8.624;2023-05-16T07:46:45;11.45;;;2.60;;
62554;SDS011;48610;52.144;8.624;2023-05-16T07:49:45;9.25;;;2.33;;
62554;SDS011;48610;52.144;8.624;2023-05-16T07:52:46;12.23;;;2.55;;
62554;SDS011;48610;52.144;8.624;2023-05-16T07:55:47;14.15;;;2.20;;
62554;SDS011;48610;52.144;8.624;2023-05-16T07:58:48;21.13;;;3.10;;
62554;SDS011;48610;52.144;8.624;2023-05-16T08:01:49;10.50;;;2.85;;
62554;SDS011;48610;52.144;8.624;2023-05-16T08:04:50;19.40;;;2.92;;
62554;SDS011;48610;52.144;8.624;2023-05-16T08:07:51;11.52;;;2.83;;
62554;SDS011;48610;52.144;8.624;2023-05-16T08:10:51;15.90;;;2.55;;
62554;SDS011;48610;52.144;8.624;2023-05-16T08:13:52;6.28;;;2.10;;
62554;SDS011;48610;52.144;8.624;2023-05-16T08:16:52;9.93;;;2.10;;
62554;SDS011;48610;52.144;8.624;2023-05-16T08:19:53;9.07;;;2.15;;
62554;SDS011;48610;52.144;8.624;2023-05-16T08:22:55;8.65;;;2.45;;
62554;SDS011;48610;52.144;8.624;2023-05-16T08:25:55;12.43;;;2.63;;
62554;SDS011;48610;52.144;8.624;2023-05-16T08:28:56;10.15;;;2.40;;
62554;SDS011;48610;52.144;8.624;2023-05-16T08:31:56;15.90;;;2.97;;
62554;SDS011;48610;52.144;8.624;2023-05-16T08:34:57;7.45;;;2.33;;
62554;SDS011;48610;52.144;8.624;2023-05-16T08:37:57;12.48;;;2.20;;
62554;SDS011;48610;52.144;8.624;2023-05-16T08:40:58;13.77;;;2.38;;
62554;SDS011;48610;52.144;8.624;2023-05-16T08:43:59;9.30;;;2.55;;
62554;SDS011;48610;52.144;8.624;2023-05-16T08:47:02;13.48;;;2.80;;
62554;SDS011;48610;52.144;8.624;2023-05-16T08:50:09;5.88;;;1.77;;
62554;SDS011;48610;52.144;8.624;2023-05-16T08:53:11;4.85;;;2.35;;
62554;SDS011;48610;52.144;8.624;2023-05-16T08:56:13;9.98;;;2.40;;
62554;SDS011;48610;52.144;8.624;2023-05-16T08:59:16;14.27;;;3.08;;
62554;SDS011;48610;52.144;8.624;2023-05-16T09:02:18;5.75;;;2.70;;
62554;SDS011;48610;52.144;8.624;2023-05-16T09:05:20;8.95;;;2.42;;
62554;SDS011;48610;52.144;8.624;2023-05-16T09:08:22;13.13;;;2.72;;
62554;SDS011;48610;52.144;8.624;2023-05-16T09:11:22;19.23;;;2.58;;
62554;SDS011;48610;52.144;8.624;2023-05-16T09:14:23;7.88;;;2.35;;
62554;SDS011;48610;52.144;8.624;2023-05-16T09:17:23;9.93;;;2.50;;
62554;SDS011;48610;52.144;8.624;2023-05-16T09:20:25;9.20;;;2.42;;
62554;SDS011;48610;52.144;8.624;2023-05-16T09:23:26;11.55;;;2.58;;
62554;SDS011;48610;52.144;8.624;2023-05-16T09:26:26;9.05;;;1.77;;
62554;SDS011;48610;52.144;8.624;2023-05-16T09:29:27;14.65;;;2.70;;
62554;SDS011;48610;52.144;8.624;2023-05-16T09:32:28;10.10;;;2.88;;
62554;SDS011;48610;52.144;8.624;2023-05-16T09:35:30;7.47;;;1.73;;
62554;SDS011;48610;52.144;8.624;2023-05-16T09:38:31;17.88;;;2.95;;
62554;SDS011;48610;52.144;8.624;2023-05-16T09:41:32;6.00;;;1.92;;
62554;SDS011;48610;52.144;8.624;2023-05-16T09:44:34;7.70;;;2.00;;
62554;SDS011;48610;52.144;8.624;2023-05-16T09:47:34;3.65;;;1.70;;
62554;SDS011;48610;52.144;8.624;2023-05-16T09:50:36;10.48;;;2.03;;
62554;SDS011;48610;52.144;8.624;2023-05-16T09:53:37;11.45;;;2.47;;
62554;SDS011;48610;52.144;8.624;2023-05-16T09:56:47;7.72;;;1.85;;
62554;SDS011;48610;52.144;8.624;2023-05-16T09:59:49;7.60;;;2.10;;
62554;SDS011;48610;52.144;8.624;2023-05-16T10:02:50;16.00;;;2.25;;
62554;SDS011;48610;52.144;8.624;2023-05-16T10:05:52;8.38;;;1.85;;
62554;SDS011;48610;52.144;8.624;2023-05-16T10:08:54;9.73;;;2.20;;
62554;SDS011;48610;52.144;8.624;2023-05-16T10:11:54;5.93;;;1.85;;
62554;SDS011;48610;52.144;8.624;2023-05-16T10:14:56;5.13;;;1.88;;
62554;SDS011;48610;52.144;8.624;2023-05-16T10:17:58;3.67;;;1.60;;
62554;SDS011;48610;52.144;8.624;2023-05-16T10:21:02;10.02;;;2.20;;
62554;SDS011;48610;52.144;8.624;2023-05-16T10:27:06;5.40;;;1.95;;
62554;SDS011;48610;52.144;8.624;2023-05-16T10:30:07;11.05;;;2.50;;
62554;SDS011;48610;52.144;8.624;2023-05-16T10:33:13;5.13;;;1.88;;
62554;SDS011;48610;52.144;8.624;2023-05-16T10:36:15;4.97;;;2.10;;
62554;SDS011;48610;52.144;8.624;2023-05-16T10:39:17;6.22;;;2.08;;
62554;SDS011;48610;52.144;8.624;2023-05-16T10:42:18;6.80;;;2.20;;
62554;SDS011;48610;52.144;8.624;2023-05-16T10:45:19;5.60;;;1.63;;
62554;SDS011;48610;52.144;8.624;2023-05-16T10:48:27;8.13;;;2.58;;
62554;SDS011;48610;52.144;8.624;2023-05-16T10:51:35;10.00;;;2.67;;
62554;SDS011;48610;52.144;8.624;2023-05-16T10:54:38;8.10;;;2.13;;
62554;SDS011;48610;52.144;8.624;2023-05-16T11:00:43;12.65;;;2.50;;
62554;SDS011;48610;52.144;8.624;2023-05-16T11:06:59;4.30;;;2.28;;
62554;SDS011;48610;52.144;8.624;2023-05-16T11:10:09;7.55;;;2.10;;
62554;SDS011;48610;52.144;8.624;2023-05-16T11:13:16;9.40;;;2.40;;
62554;SDS011;48610;52.144;8.624;2023-05-16T11:16:27;11.00;;;2.15;;
62554;SDS011;48610;52.144;8.624;2023-05-16T11:19:29;29.23;;;3.03;;
62554;SDS011;48610;52.144;8.624;2023-05-16T11:22:37;11.85;;;2.25;;
62554;SDS011;48610;52.144;8.624;2023-05-16T11:25:40;15.93;;;2.35;;
62554;SDS011;48610;52.144;8.624;2023-05-16T11:28:41;7.32;;;1.77;;
62554;SDS011;48610;52.144;8.624;2023-05-16T11:31:42;3.53;;;1.50;;
62554;SDS011;48610;52.144;8.624;2023-05-16T11:34:43;6.50;;;1.75;;
62554;SDS011;48610;52.144;8.624;2023-05-16T11:37:46;8.10;;;2.33;;
62554;SDS011;48610;52.144;8.624;2023-05-16T11:40:46;5.95;;;2.15;;
62554;SDS011;48610;52.144;8.624;2023-05-16T11:43:47;5.70;;;1.90;;
62554;SDS011;48610;52.144;8.624;2023-05-16T11:46:48;8.20;;;1.70;;
62554;SDS011;48610;52.144;8.624;2023-05-16T11:49:48;14.38;;;1.83;;
62554;SDS011;48610;52.144;8.624;2023-05-16T11:52:52;7.93;;;2.28;;
62554;SDS011;48610;52.144;8.624;2023-05-16T11:55:53;6.57;;;1.92;;
62554;SDS011;48610;52.144;8.624;2023-05-16T11:58:54;6.53;;;1.48;;
62554;SDS011;48610;52.144;8.624;2023-05-16T12:01:55;12.30;;;2.40;;
62554;SDS011;48610;52.144;8.624;2023-05-16T12:04:55;3.92;;;2.15;;
62554;SDS011;48610;52.144;8.624;2023-05-16T12:07:56;7.40;;;2.25;;
62554;SDS011;48610;52.144;8.624;2023-05-16T12:10:56;8.00;;;2.13;;
62554;SDS011;48610;52.144;8.624;2023-05-16T12:13:57;8.05;;;2.20;;
62554;SDS011;48610;52.144;8.624;2023-05-16T12:16:58;7.53;;;2.13;;
62554;SDS011;48610;52.144;8.624;2023-05-16T12:19:59;6.28;;;1.35;;
62554;SDS011;48610;52.144;8.624;2023-05-16T12:23:00;2.45;;;1.45;;
62554;SDS011;48610;52.144;8.624;2023-05-16T12:26:01;8.40;;;1.95;;
62554;SDS011;48610;52.144;8.624;2023-05-16T12:29:05;10.90;;;2.20;;
62554;SDS011;48610;52.144;8.624;2023-05-16T12:32:07;5.90;;;1.88;;
62554;SDS011;48610;52.144;8.624;2023-05-16T12:35:09;5.65;;;2.25;;
62554;SDS011;48610;52.144;8.624;2023-05-16T12:38:11;6.90;;;2.28;;
62554;SDS011;48610;52.144;8.624;2023-05-16T12:41:16;9.10;;;2.28;;
62554;SDS011;48610;52.144;8.624;2023-05-16T12:44:20;16.98;;;2.10;;
62554;SDS011;48610;52.144;8.624;2023-05-16T12:47:22;6.95;;;1.98;;
62554;SDS011;48610;52.144;8.624;2023-05-16T12:50:25;3.28;;;1.50;;
62554;SDS011;48610;52.144;8.624;2023-05-16T12:53:25;6.90;;;1.90;;
62554;SDS011;48610;52.144;8.624;2023-05-16T12:56:27;3.78;;;1.42;;
62554;SDS011;48610;52.144;8.624;2023-05-16T12:59:28;9.93;;;2.10;;
62554;SDS011;48610;52.144;8.624;2023-05-16T13:02:30;10.38;;;2.10;;
62554;SDS011;48610;52.144;8.624;2023-05-16T13:05:30;5.65;;;2.08;;
62554;SDS011;48610;52.144;8.624;2023-05-16T13:08:31;6.18;;;2.38;;
62554;SDS011;48610;52.144;8.624;2023-05-16T13:11:32;5.25;;;1.75;;
62554;SDS011;48610;52.144;8.624;2023-05-16T13:14:32;11.02;;;2.30;;
62554;SDS011;48610;52.144;8.624;2023-05-16T13:17:33;4.13;;;1.67;;
62554;SDS011;48610;52.144;8.624;2023-05-16T13:20:34;3.47;;;1.55;;
62554;SDS011;48610;52.144;8.624;2023-05-16T13:23:34;10.43;;;2.20;;
62554;SDS011;48610;52.144;8.624;2023-05-16T13:26:35;10.70;;;2.38;;
62554;SDS011;48610;52.144;8.624;2023-05-16T13:29:36;6.68;;;2.10;;
62554;SDS011;48610;52.144;8.624;2023-05-16T13:32:36;5.68;;;1.77;;
62554;SDS011;48610;52.144;8.624;2023-05-16T13:35:37;3.42;;;1.50;;
62554;SDS011;48610;52.144;8.624;2023-05-16T13:38:38;5.25;;;1.65;;
62554;SDS011;48610;52.144;8.624;2023-05-16T13:41:39;6.30;;;1.73;;
62554;SDS011;48610;52.144;8.624;2023-05-16T13:44:41;6.00;;;1.77;;
62554;SDS011;48610;52.144;8.624;2023-05-16T13:47:42;4.65;;;1.63;;
62554;SDS011;48610;52.144;8.624;2023-05-16T13:50:42;4.10;;;1.55;;
62554;SDS011;48610;52.144;8.624;2023-05-16T13:53:43;10.82;;;2.15;;
62554;SDS011;48610;52.144;8.624;2023-05-16T13:56:43;10.60;;;1.88;;
62554;SDS011;48610;52.144;8.624;2023-05-16T13:59:44;5.22;;;1.90;;
62554;SDS011;48610;52.144;8.624;2023-05-16T14:02:45;24.65;;;2.13;;
62554;SDS011;48610;52.144;8.624;2023-05-16T14:05:45;20.35;;;2.30;;
62554;SDS011;48610;52.144;8.624;2023-05-16T14:08:47;12.70;;;2.35;;
62554;SDS011;48610;52.144;8.624;2023-05-16T14:11:47;10.27;;;1.88;;
62554;SDS011;48610;52.144;8.624;2023-05-16T14:14:48;4.97;;;1.48;;
62554;SDS011;48610;52.144;8.624;2023-05-16T14:17:49;9.07;;;1.38;;
62554;SDS011;48610;52.144;8.624;2023-05-16T14:20:49;7.03;;;1.95;;
62554;SDS011;48610;52.144;8.624;2023-05-16T14:23:50;6.22;;;1.70;;
62554;SDS011;48610;52.144;8.624;2023-05-16T14:26:51;8.65;;;1.58;;
62554;SDS011;48610;52.144;8.624;2023-05-16T14:29:54;7.13;;;2.08;;
62554;SDS011;48610;52.144;8.624;2023-05-16T14:32:54;12.25;;;1.90;;
62554;SDS011;48610;52.144;8.624;2023-05-16T14:35:55;11.52;;;1.95;;
62554;SDS011;48610;52.144;8.624;2023-05-16T14:38:56;7.55;;;1.40;;
62554;SDS011;48610;52.144;8.624;2023-05-16T14:41:57;6.03;;;1.58;;
62554;SDS011;48610;52.144;8.624;2023-05-16T14:44:57;5.20;;;1.55;;
62554;SDS011;48610;52.144;8.624;2023-05-16T14:47:58;7.90;;;2.38;;
62554;SDS011;48610;52.144;8.624;2023-05-16T14:50:59;11.27;;;2.20;;
62554;SDS011;48610;52.144;8.624;2023-05-16T14:53:59;12.27;;;2.22;;
62554;SDS011;48610;52.144;8.624;2023-05-16T14:57:00;10.20;;;2.10;;
62554;SDS011;48610;52.144;8.624;2023-05-16T15:00:02;16.08;;;2.30;;
62554;SDS011;48610;52.144;8.624;2023-05-16T15:03:04;4.53;;;1.52;;
62554;SDS011;48610;52.144;8.624;2023-05-16T15:06:05;7.97;;;1.70;;
62554;SDS011;48610;52.144;8.624;2023-05-16T15:09:06;4.20;;;2.20;;
62554;SDS011;48610;52.144;8.624;2023-05-16T15:12:07;6.47;;;1.73;;
62554;SDS011;48610;52.144;8.624;2023-05-16T15:15:08;9.55;;;2.17;;
62554;SDS011;48610;52.144;8.624;2023-05-16T15:18:12;10.00;;;2.35;;
62554;SDS011;48610;52.144;8.624;2023-05-16T15:21:13;5.20;;;1.55;;
62554;SDS011;48610;52.144;8.624;2023-05-16T15:24:13;3.90;;;1.65;;
62554;SDS011;48610;52.144;8.624;2023-05-16T15:27:15;6.60;;;1.75;;
62554;SDS011;48610;52.144;8.624;2023-05-16T15:30:16;2.53;;;1.50;;
62554;SDS011;48610;52.144;8.624;2023-05-16T15:33:16;6.25;;;1.80;;
62554;SDS011;48610;52.144;8.624;2023-05-16T15:36:17;4.35;;;1.50;;
62554;SDS011;48610;52.144;8.624;2023-05-16T15:39:17;8.45;;;2.10;;
62554;SDS011;48610;52.144;8.624;2023-05-16T15:42:18;7.63;;;2.58;;
62554;SDS011;48610;52.144;8.624;2023-05-16T15:45:19;7.72;;;1.77;;
62554;SDS011;48610;52.144;8.624;2023-05-16T15:48:20;5.85;;;2.13;;
62554;SDS011;48610;52.144;8.624;2023-05-16T15:51:20;8.95;;;2.00;;
62554;SDS011;48610;52.144;8.624;2023-05-16T15:54:21;4.40;;;1.60;;
62554;SDS011;48610;52.144;8.624;2023-05-16T15:57:21;4.38;;;2.13;;
62554;SDS011;48610;52.144;8.624;2023-05-16T16:00:22;4.18;;;1.80;;
62554;SDS011;48610;52.144;8.624;2023-05-16T16:03:23;9.00;;;1.80;;
62554;SDS011;48610;52.144;8.624;2023-05-16T16:06:24;5.13;;;1.80;;
62554;SDS011;48610;52.144;8.624;2023-05-16T16:09:25;5.90;;;2.28;;
62554;SDS011;48610;52.144;8.624;2023-05-16T16:12:27;7.07;;;2.75;;
62554;SDS011;48610;52.144;8.624;2023-05-16T16:15:28;8.40;;;2.50;;
62554;SDS011;48610;52.144;8.624;2023-05-16T16:18:30;12.40;;;3.58;;
62554;SDS011;48610;52.144;8.624;2023-05-16T16:21:30;8.75;;;2.75;;
62554;SDS011;48610;52.144;8.624;2023-05-16T16:24:32;5.85;;;2.58;;
62554;SDS011;48610;52.144;8.624;2023-05-16T16:27:33;2.97;;;1.80;;
62554;SDS011;48610;52.144;8.624;2023-05-16T16:30:34;7.43;;;2.50;;
62554;SDS011;48610;52.144;8.624;2023-05-16T16:33:34;8.48;;;2.60;;
62554;SDS011;48610;52.144;8.624;2023-05-16T16:36:35;6.03;;;2.13;;
62554;SDS011;48610;52.144;8.624;2023-05-16T16:39:37;6.30;;;2.42;;
62554;SDS011;48610;52.144;8.624;2023-05-16T16:42:37;6.75;;;2.75;;
62554;SDS011;48610;52.144;8.624;2023-05-16T16:45:39;8.60;;;2.60;;
62554;SDS011;48610;52.144;8.624;2023-05-16T16:48:40;8.95;;;2.90;;
62554;SDS011;48610;52.144;8.624;2023-05-16T16:51:40;11.07;;;3.00;;
62554;SDS011;48610;52.144;8.624;2023-05-16T16:54:41;7.72;;;2.88;;
62554;SDS011;48610;52.144;8.624;2023-05-16T16:57:41;8.93;;;3.38;;
62554;SDS011;48610;52.144;8.624;2023-05-16T17:00:42;10.55;;;3.47;;
62554;SDS011;48610;52.144;8.624;2023-05-16T17:03:43;6.32;;;3.22;;
62554;SDS011;48610;52.144;8.624;2023-05-16T17:06:44;7.90;;;3.13;;
62554;SDS011;48610;52.144;8.624;2023-05-16T17:09:44;12.52;;;3.22;;
62554;SDS011;48610;52.144;8.624;2023-05-16T17:12:45;14.88;;;3.38;;
62554;SDS011;48610;52.144;8.624;2023-05-16T17:15:48;20.85;;;3.72;;
62554;SDS011;48610;52.144;8.624;2023-05-16T17:18:48;10.07;;;3.20;;
62554;SDS011;48610;52.144;8.624;2023-05-16T17:21:49;10.60;;;3.10;;
62554;SDS011;48610;52.144;8.624;2023-05-16T17:24:51;9.68;;;3.80;;
62554;SDS011;48610;52.144;8.624;2023-05-16T17:27:51;7.13;;;2.85;;
62554;SDS011;48610;52.144;8.624;2023-05-16T17:30:52;8.65;;;3.05;;
62554;SDS011;48610;52.144;8.624;2023-05-16T17:33:52;10.25;;;2.90;;
62554;SDS011;48610;52.144;8.624;2023-05-16T17:36:53;8.93;;;2.95;;
62554;SDS011;48610;52.144;8.624;2023-05-16T17:39:53;10.00;;;3.10;;
62554;SDS011;48610;52.144;8.624;2023-05-16T17:42:54;9.68;;;3.53;;
62554;SDS011;48610;52.144;8.624;2023-05-16T17:45:55;7.05;;;2.97;;
62554;SDS011;48610;52.144;8.624;2023-05-16T17:48:56;9.80;;;3.38;;
62554;SDS011;48610;52.144;8.624;2023-05-16T17:51:56;9.93;;;3.30;;
62554;SDS011;48610;52.144;8.624;2023-05-16T17:54:58;5.82;;;3.40;;
62554;SDS011;48610;52.144;8.624;2023-05-16T17:57:58;14.13;;;3.40;;
62554;SDS011;48610;52.144;8.624;2023-05-16T18:00:59;10.27;;;3.70;;
62554;SDS011;48610;52.144;8.624;2023-05-16T18:03:59;6.18;;;3.40;;
62554;SDS011;48610;52.144;8.624;2023-05-16T18:07:00;12.82;;;3.47;;
62554;SDS011;48610;52.144;8.624;2023-05-16T18:10:01;11.75;;;3.35;;
62554;SDS011;48610;52.144;8.624;2023-05-16T18:13:01;10.27;;;3.83;;
62554;SDS011;48610;52.144;8.624;2023-05-16T18:16:02;8.05;;;3.50;;
62554;SDS011;48610;52.144;8.624;2023-05-16T18:19:02;11.10;;;3.97;;